createdAt,value
2018-05-31T00:01:44.519Z,6.33
2018-05-31T00:04:12.090Z,6.27
2018-05-31T00:06:39.657Z,6.80
2018-05-31T00:09:07.233Z,6.63
2018-05-31T00:11:34.853Z,6.93
2018-05-31T00:14:02.413Z,6.63
2018-05-31T00:16:29.987Z,7.57
2018-05-31T00:18:57.527Z,7.03
2018-05-31T00:21:25.133Z,7.40
2018-05-31T00:23:53.637Z,6.93
2018-05-31T00:26:21.203Z,7.07
2018-05-31T00:28:49.527Z,7.40
2018-05-31T00:31:17.087Z,6.87
2018-05-31T00:33:44.673Z,7.53
2018-05-31T00:36:13.204Z,6.30
2018-05-31T00:38:40.765Z,6.23
2018-05-31T00:41:08.305Z,8.17
2018-05-31T00:43:35.884Z,6.40
2018-05-31T00:46:03.431Z,7.73
2018-05-31T00:48:31.003Z,7.47
2018-05-31T00:50:58.576Z,7.43
2018-05-31T00:53:26.145Z,7.37
2018-05-31T00:56:05.675Z,7.00
2018-05-31T00:58:33.253Z,6.33
2018-05-31T01:01:00.827Z,8.67
2018-05-31T01:03:28.385Z,7.60
2018-05-31T01:05:56.946Z,7.70
2018-05-31T01:08:24.590Z,7.07
2018-05-31T01:10:53.096Z,7.23
2018-05-31T01:13:20.835Z,10.73
2018-05-31T01:15:48.450Z,19.57
2018-05-31T01:18:16.771Z,15.53
2018-05-31T01:20:44.336Z,8.23
2018-05-31T01:23:13.846Z,7.03
2018-05-31T01:25:41.386Z,7.33
2018-05-31T01:28:08.927Z,7.23
2018-05-31T01:30:36.562Z,7.67
2018-05-31T01:33:05.061Z,7.10
2018-05-31T01:35:32.642Z,5.90
2018-05-31T01:38:12.021Z,7.83
2018-05-31T01:40:39.568Z,7.80
2018-05-31T01:43:07.137Z,7.90
2018-05-31T01:45:34.691Z,6.97
2018-05-31T01:48:02.262Z,6.60
2018-05-31T01:50:29.850Z,6.70
2018-05-31T01:52:57.431Z,7.37
2018-05-31T01:55:24.982Z,6.57
2018-05-31T01:57:52.522Z,6.60
2018-05-31T02:00:20.095Z,6.63
2018-05-31T02:02:47.637Z,6.90
2018-05-31T02:05:15.209Z,6.93
2018-05-31T02:07:43.516Z,7.50
2018-05-31T02:10:11.089Z,6.73
2018-05-31T02:12:39.605Z,6.93
2018-05-31T02:15:07.146Z,6.93
2018-05-31T02:17:34.711Z,6.50
2018-05-31T02:20:03.202Z,7.13
2018-05-31T02:22:30.796Z,6.60
2018-05-31T02:24:59.306Z,7.13
2018-05-31T02:27:26.858Z,6.40
2018-05-31T02:29:54.422Z,6.80
2018-05-31T02:32:23.926Z,6.53
2018-05-31T02:34:51.505Z,6.20
2018-05-31T02:37:20.029Z,7.00
2018-05-31T02:39:48.394Z,6.07
2018-05-31T02:42:15.957Z,6.60
2018-05-31T02:44:43.517Z,6.20
2018-05-31T02:47:11.070Z,6.80
2018-05-31T02:49:38.662Z,5.90
2018-05-31T02:52:07.177Z,6.53
2018-05-31T02:54:34.736Z,6.70
2018-05-31T02:57:02.280Z,6.93
2018-05-31T02:59:29.839Z,6.73
2018-05-31T03:01:57.388Z,6.90
2018-05-31T03:04:24.960Z,6.40
2018-05-31T03:06:52.555Z,6.60
2018-05-31T03:09:20.098Z,6.60
2018-05-31T03:11:47.671Z,6.13
2018-05-31T03:14:15.219Z,6.43
2018-05-31T03:16:42.806Z,6.47
2018-05-31T03:19:10.358Z,7.27
2018-05-31T03:21:37.957Z,7.20
2018-05-31T03:24:06.473Z,7.20
2018-05-31T03:26:34.018Z,6.63
2018-05-31T03:29:01.599Z,5.70
2018-05-31T03:31:29.166Z,6.17
2018-05-31T03:33:56.746Z,6.80
2018-05-31T03:36:24.281Z,5.97
2018-05-31T03:38:51.851Z,5.67
2018-05-31T03:41:19.388Z,6.00
2018-05-31T03:43:46.966Z,5.60
2018-05-31T03:46:15.529Z,6.07
2018-05-31T03:48:43.105Z,7.00
2018-05-31T03:51:10.649Z,6.57
2018-05-31T03:53:38.196Z,6.13
2018-05-31T03:56:06.755Z,6.50
2018-05-31T03:58:36.021Z,6.90
2018-05-31T04:01:03.609Z,6.37
2018-05-31T04:03:31.954Z,6.60
2018-05-31T04:05:59.509Z,6.03
2018-05-31T04:08:28.041Z,6.00
2018-05-31T04:10:55.620Z,6.13
2018-05-31T04:13:24.157Z,6.37
2018-05-31T04:15:52.505Z,6.10
2018-05-31T04:18:20.061Z,6.57
2018-05-31T04:20:47.650Z,5.90
2018-05-31T04:23:15.207Z,5.50
2018-05-31T04:25:42.753Z,5.10
2018-05-31T04:28:10.384Z,6.03
2018-05-31T04:30:37.949Z,5.13
2018-05-31T04:33:07.461Z,4.90
2018-05-31T04:35:35.011Z,5.30
2018-05-31T04:38:02.581Z,5.97
2018-05-31T04:40:30.129Z,5.67
2018-05-31T04:42:57.701Z,6.50
2018-05-31T04:45:25.266Z,5.53
2018-05-31T04:47:52.819Z,5.40
2018-05-31T04:50:21.349Z,5.93
2018-05-31T04:52:48.898Z,6.10
2018-05-31T04:55:16.473Z,6.50
2018-05-31T04:57:45.737Z,6.70
2018-05-31T05:00:13.352Z,6.30
2018-05-31T05:02:40.889Z,6.83
2018-05-31T05:05:09.201Z,7.13
2018-05-31T05:07:36.763Z,6.93
2018-05-31T05:10:04.296Z,6.43
2018-05-31T05:12:31.883Z,6.50
2018-05-31T05:14:59.437Z,6.27
2018-05-31T05:17:26.976Z,5.73
2018-05-31T05:19:54.545Z,6.70
2018-05-31T05:22:22.117Z,6.87
2018-05-31T05:24:49.683Z,6.70
2018-05-31T05:27:17.510Z,7.40
2018-05-31T05:29:45.089Z,6.80
2018-05-31T05:32:12.645Z,6.43
2018-05-31T05:34:40.400Z,6.90
2018-05-31T05:37:07.945Z,6.70
2018-05-31T05:39:36.643Z,6.20
2018-05-31T05:42:04.182Z,6.50
2018-05-31T05:44:31.728Z,5.70
2018-05-31T05:46:59.303Z,6.93
2018-05-31T05:49:26.847Z,5.93
2018-05-31T05:51:54.422Z,7.43
2018-05-31T05:54:22.736Z,7.80
2018-05-31T05:56:51.064Z,7.97
2018-05-31T05:59:18.629Z,8.50
2018-05-31T06:01:46.987Z,8.00
2018-05-31T06:04:14.630Z,9.00
2018-05-31T06:06:42.140Z,7.67
2018-05-31T06:09:10.465Z,7.33
2018-05-31T06:11:38.969Z,8.33
2018-05-31T06:14:08.543Z,8.00
2018-05-31T06:16:36.108Z,8.20
2018-05-31T06:19:03.666Z,7.40
2018-05-31T06:21:31.248Z,8.20
2018-05-31T06:23:58.804Z,7.70
2018-05-31T06:26:26.431Z,8.07
2018-05-31T06:28:54.705Z,7.90
2018-05-31T06:31:22.281Z,8.43
2018-05-31T06:33:51.797Z,8.20
2018-05-31T06:36:19.446Z,7.50
2018-05-31T06:38:47.025Z,7.63
2018-05-31T06:41:14.587Z,7.33
2018-05-31T06:43:42.145Z,8.50
2018-05-31T06:46:09.697Z,7.70
2018-05-31T06:48:37.235Z,8.03
2018-05-31T06:51:04.792Z,7.70
2018-05-31T06:53:33.293Z,8.83
2018-05-31T06:56:00.856Z,8.20
2018-05-31T06:58:28.409Z,8.93
2018-05-31T07:00:56.134Z,8.53
2018-05-31T07:03:23.643Z,9.10
2018-05-31T07:05:51.194Z,9.13
2018-05-31T07:08:18.726Z,9.13
2018-05-31T07:10:46.512Z,8.60
2018-05-31T07:13:14.050Z,10.00
2018-05-31T07:15:41.605Z,8.70
2018-05-31T07:18:09.133Z,8.37
2018-05-31T07:20:36.660Z,8.77
2018-05-31T07:23:04.211Z,9.50
2018-05-31T07:25:31.738Z,9.07
2018-05-31T07:27:59.294Z,8.40
2018-05-31T07:30:26.846Z,7.50
2018-05-31T07:32:56.122Z,8.17
2018-05-31T07:35:23.682Z,7.20
2018-05-31T07:37:51.248Z,8.00
2018-05-31T07:40:18.819Z,8.20
2018-05-31T07:42:46.391Z,7.53
2018-05-31T07:45:14.919Z,8.07
2018-05-31T07:47:42.446Z,7.63
2018-05-31T07:50:10.012Z,7.53
2018-05-31T07:52:38.510Z,8.53
2018-05-31T07:55:06.069Z,7.57
2018-05-31T07:57:35.565Z,8.07
2018-05-31T08:00:03.121Z,6.80
2018-05-31T08:02:30.685Z,7.60
2018-05-31T08:04:58.971Z,7.50
2018-05-31T08:07:26.532Z,7.20
2018-05-31T08:09:54.077Z,8.07
2018-05-31T08:12:21.630Z,7.70
2018-05-31T08:14:49.206Z,7.50
2018-05-31T08:17:17.701Z,7.20
2018-05-31T08:19:46.182Z,7.80
2018-05-31T08:22:14.527Z,7.47
2018-05-31T08:24:42.065Z,8.00
2018-05-31T08:27:09.625Z,8.17
2018-05-31T08:29:37.158Z,7.43
2018-05-31T08:32:05.481Z,7.77
2018-05-31T08:34:33.001Z,8.20
2018-05-31T08:37:01.315Z,8.27
2018-05-31T08:39:28.865Z,7.13
2018-05-31T08:41:56.442Z,6.70
2018-05-31T08:44:24.000Z,6.67
2018-05-31T08:46:52.457Z,6.80
2018-05-31T08:49:20.010Z,6.50
2018-05-31T08:51:47.542Z,5.93
2018-05-31T08:54:15.101Z,6.33
2018-05-31T08:56:42.662Z,6.70
2018-05-31T08:59:11.003Z,5.63
2018-05-31T09:01:38.530Z,5.30
2018-05-31T09:04:06.055Z,5.20
2018-05-31T09:06:33.613Z,5.33
2018-05-31T09:09:01.139Z,6.10
2018-05-31T09:11:28.694Z,5.70
2018-05-31T09:13:56.229Z,5.53
2018-05-31T09:16:23.780Z,5.70
2018-05-31T09:18:52.128Z,4.80
2018-05-31T09:21:19.652Z,4.70
2018-05-31T09:23:47.230Z,4.97
2018-05-31T09:26:14.756Z,5.20
2018-05-31T09:28:44.277Z,4.57
2018-05-31T09:31:11.814Z,4.83
2018-05-31T09:33:39.394Z,4.40
2018-05-31T09:36:06.930Z,4.97
2018-05-31T09:38:34.460Z,4.33
2018-05-31T09:41:02.020Z,5.80
2018-05-31T09:43:30.341Z,5.27
2018-05-31T09:45:57.901Z,4.43
2018-05-31T09:48:25.433Z,4.70
2018-05-31T09:50:52.977Z,4.47
2018-05-31T09:53:21.480Z,5.97
2018-05-31T09:55:49.029Z,4.60
2018-05-31T09:58:16.680Z,4.70
2018-05-31T10:00:44.177Z,5.03
2018-05-31T10:03:11.729Z,4.27
2018-05-31T10:05:39.257Z,4.40
2018-05-31T10:08:06.817Z,4.07
2018-05-31T10:10:34.356Z,3.73
2018-05-31T10:13:02.685Z,4.13
2018-05-31T10:15:31.166Z,4.67
2018-05-31T10:17:58.712Z,4.93
2018-05-31T10:20:27.274Z,5.07
2018-05-31T10:22:55.574Z,5.27
2018-05-31T10:25:23.130Z,5.50
2018-05-31T10:27:50.678Z,5.23
2018-05-31T10:30:18.317Z,4.67
2018-05-31T10:32:45.855Z,4.10
2018-05-31T10:35:13.892Z,3.90
2018-05-31T10:37:41.418Z,3.37
2018-05-31T10:40:08.963Z,3.70
2018-05-31T10:42:36.546Z,4.47
2018-05-31T10:45:04.093Z,4.53
2018-05-31T10:47:31.653Z,4.50
2018-05-31T10:49:59.409Z,3.87
2018-05-31T10:52:28.739Z,4.00
2018-05-31T10:54:56.288Z,4.67
2018-05-31T10:57:23.819Z,4.73
2018-05-31T10:59:52.141Z,3.63
2018-05-31T11:02:19.677Z,3.77
2018-05-31T11:04:47.225Z,4.00
2018-05-31T11:07:15.517Z,3.57
2018-05-31T11:09:43.078Z,4.73
2018-05-31T11:12:10.613Z,3.83
2018-05-31T11:14:38.958Z,4.10
2018-05-31T11:17:06.516Z,3.63
2018-05-31T11:19:34.043Z,3.90
2018-05-31T11:22:01.624Z,4.67
2018-05-31T11:24:29.152Z,3.90
2018-05-31T11:26:56.680Z,3.73
2018-05-31T11:29:24.233Z,8.80
2018-05-31T11:31:52.722Z,6.07
2018-05-31T11:34:22.223Z,4.43
2018-05-31T11:36:49.753Z,8.20
2018-05-31T11:39:17.310Z,4.57
2018-05-31T11:41:44.842Z,4.27
2018-05-31T11:44:14.385Z,4.77
2018-05-31T11:46:41.992Z,4.03
2018-05-31T11:49:09.546Z,3.83
2018-05-31T11:51:37.842Z,7.43
2018-05-31T11:54:05.378Z,4.17
2018-05-31T11:56:33.897Z,4.10
2018-05-31T11:59:02.393Z,4.73
2018-05-31T12:01:29.957Z,3.70
2018-05-31T12:03:58.437Z,4.13
2018-05-31T12:06:25.997Z,3.77
2018-05-31T12:08:53.530Z,3.80
2018-05-31T12:11:21.078Z,3.50
2018-05-31T12:13:48.861Z,3.20
2018-05-31T12:16:16.391Z,3.33
2018-05-31T12:18:43.957Z,3.37
2018-05-31T12:21:11.485Z,3.63
2018-05-31T12:23:39.275Z,2.77
2018-05-31T12:26:06.803Z,2.80
2018-05-31T12:28:34.384Z,3.03
2018-05-31T12:31:01.908Z,3.17
2018-05-31T12:33:29.501Z,3.20
2018-05-31T12:35:57.053Z,3.60
2018-05-31T12:38:25.399Z,6.00
2018-05-31T12:40:53.921Z,3.70
2018-05-31T12:43:21.456Z,4.57
2018-05-31T12:45:49.034Z,2.97
2018-05-31T12:48:16.576Z,3.50
2018-05-31T12:50:47.159Z,3.43
2018-05-31T12:53:14.846Z,3.00
2018-05-31T12:55:42.459Z,3.13
2018-05-31T12:58:10.821Z,2.83
2018-05-31T13:00:38.350Z,4.40
2018-05-31T13:03:06.163Z,4.50
2018-05-31T13:05:33.696Z,3.40
2018-05-31T13:08:02.061Z,3.03
2018-05-31T13:10:29.589Z,4.07
2018-05-31T13:12:57.112Z,3.00
2018-05-31T13:15:24.703Z,3.63
2018-05-31T13:17:52.257Z,3.20
2018-05-31T13:20:19.817Z,3.27
2018-05-31T13:22:47.341Z,3.03
2018-05-31T13:25:15.706Z,3.60
2018-05-31T13:27:43.216Z,2.87
2018-05-31T13:30:10.770Z,2.70
2018-05-31T13:32:38.307Z,3.60
2018-05-31T13:35:07.307Z,3.60
2018-05-31T13:37:35.075Z,2.73
2018-05-31T13:40:02.637Z,3.17
2018-05-31T13:42:30.488Z,4.23
2018-05-31T13:44:58.801Z,3.23
2018-05-31T13:47:26.341Z,3.50
2018-05-31T13:49:53.905Z,3.17
2018-05-31T13:52:21.468Z,5.73
2018-05-31T13:54:49.031Z,10.43
2018-05-31T13:57:16.549Z,3.63
2018-05-31T13:59:44.113Z,3.90
2018-05-31T14:02:12.597Z,3.37
2018-05-31T14:04:40.913Z,2.77
2018-05-31T14:07:08.445Z,3.27
2018-05-31T14:09:36.954Z,3.33
2018-05-31T14:12:04.517Z,2.90
2018-05-31T14:14:32.044Z,2.90
2018-05-31T14:16:59.608Z,4.00
2018-05-31T14:19:27.434Z,3.23
2018-05-31T14:21:57.682Z,3.27
2018-05-31T14:24:25.276Z,3.60
2018-05-31T14:26:54.773Z,3.70
2018-05-31T14:29:22.396Z,3.07
2018-05-31T14:31:49.933Z,5.50
2018-05-31T14:34:17.517Z,3.23
2018-05-31T14:36:45.041Z,2.63
2018-05-31T14:39:12.592Z,2.80
2018-05-31T14:41:41.080Z,2.60
2018-05-31T14:44:08.789Z,3.13
2018-05-31T14:46:37.105Z,3.63
2018-05-31T14:49:04.637Z,3.30
2018-05-31T14:51:32.225Z,3.33
2018-05-31T14:53:59.748Z,3.20
2018-05-31T14:56:27.301Z,2.80
2018-05-31T14:58:55.282Z,2.67
2018-05-31T15:01:23.837Z,3.30
2018-05-31T15:03:54.117Z,3.53
2018-05-31T15:06:21.665Z,3.10
2018-05-31T15:08:49.220Z,2.87
2018-05-31T15:11:16.759Z,3.30
2018-05-31T15:13:44.326Z,3.87
2018-05-31T15:16:11.937Z,3.47
2018-05-31T15:18:39.560Z,3.87
2018-05-31T15:21:07.121Z,2.90
2018-05-31T15:23:34.654Z,3.70
2018-05-31T15:26:02.979Z,3.00
2018-05-31T15:28:30.505Z,3.30
2018-05-31T15:30:58.066Z,3.70
2018-05-31T15:33:25.586Z,3.20
2018-05-31T15:35:53.192Z,3.30
2018-05-31T15:38:20.715Z,3.90
2018-05-31T15:40:49.003Z,3.53
2018-05-31T15:43:17.353Z,3.47
2018-05-31T15:45:44.882Z,4.23
2018-05-31T15:48:12.437Z,4.10
2018-05-31T15:50:39.964Z,3.20
2018-05-31T15:53:07.525Z,4.00
2018-05-31T15:55:35.069Z,4.00
2018-05-31T15:58:02.598Z,3.37
2018-05-31T16:00:30.219Z,3.60
2018-05-31T16:02:57.775Z,4.57
2018-05-31T16:05:25.338Z,3.73
2018-05-31T16:07:52.870Z,7.13
2018-05-31T16:10:21.201Z,3.83
2018-05-31T16:12:48.733Z,4.70
2018-05-31T16:15:16.294Z,7.40
2018-05-31T16:17:43.829Z,6.43
2018-05-31T16:20:11.358Z,4.70
2018-05-31T16:22:38.908Z,4.97
2018-05-31T16:25:06.442Z,9.73
2018-05-31T16:27:35.939Z,6.33
2018-05-31T16:30:03.477Z,8.93
2018-05-31T16:32:31.045Z,4.27
2018-05-31T16:34:58.573Z,4.30
2018-05-31T16:37:26.137Z,4.40
2018-05-31T16:39:53.687Z,4.87
2018-05-31T16:42:21.214Z,5.50
2018-05-31T16:44:48.768Z,4.60
2018-05-31T16:47:16.297Z,4.43
2018-05-31T16:49:43.849Z,4.30
2018-05-31T16:52:11.374Z,5.30
2018-05-31T16:54:38.941Z,4.40
2018-05-31T16:57:06.491Z,5.13
2018-05-31T16:59:34.026Z,7.60
2018-05-31T17:02:01.590Z,4.37
2018-05-31T17:04:29.118Z,5.10
2018-05-31T17:06:56.673Z,6.23
2018-05-31T17:09:24.197Z,5.33
2018-05-31T17:11:51.753Z,4.80
2018-05-31T17:14:19.284Z,5.20
2018-05-31T17:16:46.844Z,5.87
2018-05-31T17:19:15.339Z,5.07
2018-05-31T17:21:42.881Z,4.80
2018-05-31T17:24:10.446Z,5.53
2018-05-31T17:26:37.984Z,5.97
2018-05-31T17:29:05.577Z,5.80
2018-05-31T17:31:33.131Z,6.90
2018-05-31T17:34:01.131Z,6.03
2018-05-31T17:36:28.681Z,4.90
2018-05-31T17:38:56.973Z,5.47
2018-05-31T17:41:24.529Z,4.77
2018-05-31T17:43:52.065Z,5.57
2018-05-31T17:46:20.580Z,4.63
2018-05-31T17:48:48.125Z,5.03
2018-05-31T17:51:15.688Z,5.17
2018-05-31T17:53:45.183Z,5.40
2018-05-31T17:56:13.509Z,5.10
2018-05-31T17:58:41.061Z,6.80
2018-05-31T18:01:08.593Z,6.13
2018-05-31T18:03:38.085Z,5.57
2018-05-31T18:06:06.628Z,6.70
2018-05-31T18:08:34.186Z,6.80
2018-05-31T18:11:01.717Z,5.80
2018-05-31T18:13:29.652Z,8.63
2018-05-31T18:15:57.953Z,9.43
2018-05-31T18:18:25.495Z,7.90
2018-05-31T18:20:53.817Z,7.63
2018-05-31T18:23:21.355Z,6.23
2018-05-31T18:25:48.925Z,6.77
2018-05-31T18:28:16.442Z,6.90
2018-05-31T18:30:44.756Z,18.30
2018-05-31T18:33:12.282Z,11.47
2018-05-31T18:35:39.846Z,6.57
2018-05-31T18:38:07.396Z,9.93
2018-05-31T18:40:34.950Z,5.00
2018-05-31T18:43:05.370Z,6.50
2018-05-31T18:45:32.911Z,5.40
2018-05-31T18:48:02.404Z,9.27
2018-05-31T18:50:29.940Z,6.40
2018-05-31T18:52:57.496Z,6.20
2018-05-31T18:55:25.023Z,6.13
2018-05-31T18:57:53.318Z,3.80
2018-05-31T19:00:20.865Z,3.50
2018-05-31T19:02:48.425Z,3.23
2018-05-31T19:05:15.984Z,4.00
2018-05-31T19:07:44.303Z,4.43
2018-05-31T19:10:11.849Z,3.87
2018-05-31T19:12:45.078Z,3.00
2018-05-31T19:15:21.631Z,4.18
2018-05-31T19:17:41.496Z,2.97
2018-05-31T19:20:09.071Z,2.77
2018-05-31T19:22:36.593Z,3.27
2018-05-31T19:25:09.696Z,2.30
2018-05-31T19:27:39.194Z,9.80
2018-05-31T19:30:12.465Z,3.90
2018-05-31T19:32:40.756Z,3.03
2018-05-31T19:35:13.893Z,3.00
2018-05-31T19:37:41.418Z,2.73
2018-05-31T19:40:08.990Z,2.37
2018-05-31T19:42:42.322Z,2.43
2018-05-31T19:45:09.882Z,2.17
2018-05-31T19:47:37.401Z,2.43
2018-05-31T19:50:04.965Z,2.60
2018-05-31T19:52:38.193Z,2.10
2018-05-31T19:55:05.755Z,1.90
2018-05-31T19:57:33.277Z,2.20
2018-05-31T20:00:06.535Z,2.40
2018-05-31T20:02:39.783Z,2.50
2018-05-31T20:05:07.342Z,2.53
2018-05-31T20:07:34.936Z,3.60
2018-05-31T20:10:02.463Z,3.00
2018-05-31T20:12:30.075Z,3.20
2018-05-31T20:14:58.341Z,4.17
2018-05-31T20:17:25.893Z,3.40
2018-05-31T20:19:59.209Z,2.77
2018-05-31T20:22:26.758Z,2.50
2018-05-31T20:24:54.282Z,3.13
2018-05-31T20:27:21.815Z,3.43
2018-05-31T20:29:49.362Z,3.23
2018-05-31T20:32:16.960Z,4.10
2018-05-31T20:34:44.519Z,2.30
2018-05-31T20:37:12.053Z,5.17
2018-05-31T20:39:39.598Z,2.63
2018-05-31T20:42:07.162Z,2.50
2018-05-31T20:44:34.677Z,2.20
2018-05-31T20:47:03.201Z,2.03
2018-05-31T20:49:30.752Z,1.70
2018-05-31T20:51:58.288Z,2.00
2018-05-31T20:54:25.858Z,2.13
2018-05-31T20:56:53.393Z,2.10
2018-05-31T20:59:21.710Z,2.30
2018-05-31T21:01:49.237Z,3.00
2018-05-31T21:04:16.819Z,2.87
2018-05-31T21:06:44.353Z,4.27
2018-05-31T21:09:13.057Z,3.00
2018-05-31T21:11:41.564Z,3.30
2018-05-31T21:14:09.085Z,3.47
2018-05-31T21:16:36.641Z,9.13
2018-05-31T21:19:04.162Z,2.80
2018-05-31T21:21:31.721Z,2.47
2018-05-31T21:23:59.245Z,3.20
2018-05-31T21:26:26.777Z,4.67
2018-05-31T21:28:54.334Z,2.23
2018-05-31T21:31:21.857Z,2.37
2018-05-31T21:33:49.417Z,1.97
2018-05-31T21:36:17.963Z,2.37
2018-05-31T21:38:45.529Z,2.10
2018-05-31T21:41:13.111Z,1.90
2018-05-31T21:43:40.625Z,2.07
2018-05-31T21:46:08.187Z,2.00
2018-05-31T21:48:35.727Z,2.10
2018-05-31T21:51:03.278Z,2.17
2018-05-31T21:53:31.057Z,3.10
2018-05-31T21:55:58.613Z,2.30
2018-05-31T21:58:26.141Z,2.20
2018-05-31T22:00:55.590Z,2.23
2018-05-31T22:03:23.194Z,3.20
2018-05-31T22:05:50.736Z,2.97
2018-05-31T22:08:19.253Z,2.80
2018-05-31T22:10:47.612Z,6.20
2018-05-31T22:13:15.434Z,3.43
2018-05-31T22:15:43.074Z,6.63
2018-05-31T22:18:10.605Z,3.50
2018-05-31T22:20:38.178Z,10.50
2018-05-31T22:23:06.485Z,4.50
2018-05-31T22:25:34.068Z,4.70
2018-05-31T22:28:02.565Z,4.73
2018-05-31T22:30:30.113Z,4.00
2018-05-31T22:32:57.643Z,3.90
2018-05-31T22:35:25.228Z,4.10
2018-05-31T22:37:52.755Z,4.37
2018-05-31T22:40:20.307Z,4.33
2018-05-31T22:42:47.861Z,4.03
2018-05-31T22:45:15.399Z,6.00
2018-05-31T22:47:42.972Z,4.80
2018-05-31T22:50:11.281Z,4.00
2018-05-31T22:52:38.856Z,4.37
2018-05-31T22:55:06.422Z,4.57
2018-05-31T22:57:33.970Z,5.00
2018-05-31T23:00:01.521Z,4.60
2018-05-31T23:02:29.064Z,4.80
2018-05-31T23:04:56.610Z,4.80
2018-05-31T23:07:24.197Z,4.90
2018-05-31T23:09:51.758Z,4.60
2018-05-31T23:12:19.321Z,4.23
2018-05-31T23:14:46.885Z,5.70
2018-05-31T23:17:14.449Z,4.33
2018-05-31T23:19:42.019Z,3.80
2018-05-31T23:22:09.562Z,4.13
2018-05-31T23:24:37.090Z,3.63
2018-05-31T23:27:04.647Z,4.23
2018-05-31T23:29:32.931Z,3.67
2018-05-31T23:32:00.487Z,3.47
2018-05-31T23:34:28.025Z,4.37
2018-05-31T23:36:56.344Z,5.13
2018-05-31T23:39:23.860Z,3.97
2018-05-31T23:41:51.414Z,3.57
2018-05-31T23:44:19.701Z,3.90
2018-05-31T23:46:47.234Z,4.07
2018-05-31T23:49:14.800Z,3.57
2018-05-31T23:51:43.270Z,4.17
2018-05-31T23:54:10.829Z,4.17
2018-05-31T23:56:38.353Z,4.03
2018-05-31T23:59:05.897Z,4.17
